createdAt,value
2019-01-10T00:01:01.316Z,-0.95
2019-01-10T00:03:33.913Z,-0.93
2019-01-10T00:06:07.681Z,-0.84
2019-01-10T00:08:40.321Z,-0.90
2019-01-10T00:11:16.533Z,-1.06
2019-01-10T00:13:49.226Z,-1.13
2019-01-10T00:16:21.794Z,-1.16
2019-01-10T00:18:54.377Z,-1.10
2019-01-10T00:21:27.159Z,-1.17
2019-01-10T00:23:59.850Z,-1.18
2019-01-10T00:26:32.796Z,-1.14
2019-01-10T00:29:05.466Z,-1.07
2019-01-10T00:31:38.157Z,-0.98
2019-01-10T00:34:10.880Z,-0.99
2019-01-10T00:36:43.577Z,-1.07
2019-01-10T00:39:16.160Z,-1.01
2019-01-10T00:41:48.814Z,-1.02
2019-01-10T00:44:21.399Z,-1.12
2019-01-10T00:46:53.971Z,-1.12
2019-01-10T00:49:26.602Z,-1.15
2019-01-10T00:51:59.208Z,-1.23
2019-01-10T00:54:31.812Z,-1.17
2019-01-10T00:57:04.538Z,-1.13
2019-01-10T00:59:40.535Z,-1.28
2019-01-10T01:02:13.174Z,-1.22
2019-01-10T01:04:45.899Z,-1.25
2019-01-10T01:07:18.612Z,-1.29
2019-01-10T01:09:51.291Z,-1.29
2019-01-10T01:12:23.960Z,-1.33
2019-01-10T01:14:56.640Z,-1.26
2019-01-10T01:17:29.278Z,-1.19
2019-01-10T01:20:01.854Z,-1.22
2019-01-10T01:22:34.424Z,-1.14
2019-01-10T01:25:08.618Z,-1.13
2019-01-10T01:27:41.318Z,-1.14
2019-01-10T01:30:17.950Z,-1.06
2019-01-10T01:32:50.628Z,-0.97
2019-01-10T01:35:23.186Z,-0.99
2019-01-10T01:37:56.017Z,-0.98
2019-01-10T01:40:28.735Z,-0.99
2019-01-10T01:43:07.317Z,-0.92
2019-01-10T01:45:35.587Z,-0.91
2019-01-10T01:48:08.251Z,-0.99
2019-01-10T01:50:40.920Z,-0.98
2019-01-10T01:53:13.543Z,-0.97
2019-01-10T01:55:46.150Z,-1.00
2019-01-10T01:58:18.883Z,-0.86
2019-01-10T02:00:50.708Z,-1.00
2019-01-10T02:03:23.346Z,-1.00
2019-01-10T02:05:55.894Z,-1.08
2019-01-10T02:08:28.479Z,-1.13
2019-01-10T02:11:01.078Z,-1.02
2019-01-10T02:13:33.681Z,-1.01
2019-01-10T02:16:06.388Z,-1.02
2019-01-10T02:18:39.017Z,-1.05
2019-01-10T02:21:11.630Z,-0.95
2019-01-10T02:23:44.239Z,-1.04
2019-01-10T02:26:16.860Z,-0.99
2019-01-10T02:28:49.434Z,-0.87
2019-01-10T02:31:22.109Z,-0.91
2019-01-10T02:33:54.701Z,-0.97
2019-01-10T02:36:27.286Z,-0.92
2019-01-10T02:38:59.908Z,-0.93
2019-01-10T02:41:32.431Z,-1.00
2019-01-10T02:44:05.224Z,-1.00
2019-01-10T02:46:37.782Z,-0.93
2019-01-10T02:49:10.423Z,-0.93
2019-01-10T02:51:42.976Z,-1.05
2019-01-10T02:54:15.592Z,-1.02
2019-01-10T02:56:48.221Z,-1.08
2019-01-10T02:59:20.852Z,-1.20
2019-01-10T03:01:53.439Z,-1.28
2019-01-10T03:04:26.078Z,-1.24
2019-01-10T03:06:58.708Z,-1.28
2019-01-10T03:09:31.292Z,-1.36
2019-01-10T03:12:04.051Z,-1.42
2019-01-10T03:14:36.700Z,-1.29
2019-01-10T03:17:09.293Z,-1.44
2019-01-10T03:19:41.869Z,-1.52
2019-01-10T03:22:14.482Z,-1.55
2019-01-10T03:24:47.085Z,-1.51
2019-01-10T03:27:19.649Z,-1.63
2019-01-10T03:29:52.363Z,-1.55
2019-01-10T03:32:25.025Z,-1.50
2019-01-10T03:34:57.719Z,-1.49
2019-01-10T03:37:30.381Z,-1.53
2019-01-10T03:40:03.207Z,-1.64
2019-01-10T03:42:35.878Z,-1.63
2019-01-10T03:45:11.976Z,-1.62
2019-01-10T03:47:44.613Z,-1.63
2019-01-10T03:50:17.793Z,-1.52
2019-01-10T03:52:50.375Z,-1.49
2019-01-10T03:55:23.076Z,-1.58
2019-01-10T03:57:55.742Z,-1.52
2019-01-10T04:00:28.328Z,-1.61
2019-01-10T04:03:00.977Z,-1.50
2019-01-10T04:05:35.636Z,-1.62
2019-01-10T04:08:08.265Z,-1.48
2019-01-10T04:10:40.854Z,-1.37
2019-01-10T04:13:13.503Z,-1.38
2019-01-10T04:15:46.112Z,-1.57
2019-01-10T04:18:18.948Z,-1.60
2019-01-10T04:20:51.546Z,-1.57
2019-01-10T04:23:24.165Z,-1.57
2019-01-10T04:25:56.849Z,-1.45
2019-01-10T04:28:29.476Z,-1.53
2019-01-10T04:31:02.319Z,-1.51
2019-01-10T04:33:35.036Z,-1.54
2019-01-10T04:36:07.715Z,-1.51
2019-01-10T04:38:40.349Z,-1.50
2019-01-10T04:41:12.984Z,-1.57
2019-01-10T04:43:45.549Z,-1.59
2019-01-10T04:46:18.238Z,-1.49
2019-01-10T04:48:50.851Z,-1.40
2019-01-10T04:51:23.441Z,-1.41
2019-01-10T04:53:56.087Z,-1.38
2019-01-10T04:56:28.663Z,-1.33
2019-01-10T04:59:01.294Z,-1.26
2019-01-10T05:01:33.873Z,-1.37
2019-01-10T05:04:06.574Z,-1.38
2019-01-10T05:06:39.151Z,-1.47
2019-01-10T05:09:11.777Z,-1.48
2019-01-10T05:11:44.519Z,-1.38
2019-01-10T05:14:17.172Z,-1.51
2019-01-10T05:16:50.786Z,-1.57
2019-01-10T05:19:23.388Z,-1.66
2019-01-10T05:21:56.122Z,-1.51
2019-01-10T05:24:28.725Z,-1.53
2019-01-10T05:27:01.332Z,-1.54
2019-01-10T05:29:33.906Z,-1.55
2019-01-10T05:32:06.733Z,-1.61
2019-01-10T05:34:39.320Z,-1.57
2019-01-10T05:37:11.990Z,-1.64
2019-01-10T05:39:47.662Z,-1.63
2019-01-10T05:42:19.412Z,-1.65
2019-01-10T05:44:51.997Z,-1.60
2019-01-10T05:47:24.657Z,-1.57
2019-01-10T05:49:57.292Z,-1.50
2019-01-10T05:52:29.902Z,-1.60
2019-01-10T05:55:03.415Z,-1.49
2019-01-10T05:57:35.933Z,-1.50
2019-01-10T06:00:13.947Z,-1.53
2019-01-10T06:02:46.527Z,-1.55
2019-01-10T06:05:19.140Z,-1.63
2019-01-10T06:07:51.835Z,-1.60
2019-01-10T06:10:27.798Z,-1.56
2019-01-10T06:13:00.711Z,-1.75
2019-01-10T06:15:33.355Z,-1.65
2019-01-10T06:18:06.985Z,-1.67
2019-01-10T06:20:39.661Z,-1.69
2019-01-10T06:23:12.315Z,-1.64
2019-01-10T06:25:45.019Z,-1.66
2019-01-10T06:28:17.635Z,-1.55
2019-01-10T06:30:50.339Z,-1.55
2019-01-10T06:33:22.936Z,-1.59
2019-01-10T06:35:55.571Z,-1.51
2019-01-10T06:38:28.146Z,-1.56
2019-01-10T06:41:00.887Z,-1.57
2019-01-10T06:43:33.528Z,-1.53
2019-01-10T06:46:06.222Z,-1.51
2019-01-10T06:48:38.862Z,-1.59
2019-01-10T06:51:13.651Z,-1.72
2019-01-10T06:53:48.416Z,-1.82
2019-01-10T06:56:21.049Z,-1.69
2019-01-10T06:58:53.653Z,-1.70
2019-01-10T07:01:26.289Z,-1.68
2019-01-10T07:03:58.069Z,-1.65
2019-01-10T07:06:30.656Z,-1.60
2019-01-10T07:09:03.279Z,-1.60
2019-01-10T07:11:35.920Z,-1.64
2019-01-10T07:14:08.849Z,-1.77
2019-01-10T07:16:41.936Z,-1.76
2019-01-10T07:19:15.984Z,-1.65
2019-01-10T07:21:57.592Z,-1.53
2019-01-10T07:24:30.210Z,-1.50
2019-01-10T07:27:02.763Z,-1.44
2019-01-10T07:29:35.338Z,-1.42
2019-01-10T07:32:07.915Z,-1.39
2019-01-10T07:34:40.582Z,-1.55
2019-01-10T07:37:13.257Z,-1.48
2019-01-10T07:39:45.875Z,-1.34
2019-01-10T07:42:18.468Z,-1.13
2019-01-10T07:44:51.790Z,-1.38
2019-01-10T07:47:29.005Z,-1.16
2019-01-10T07:50:02.758Z,-1.18
2019-01-10T07:52:35.342Z,-1.11
2019-01-10T07:55:08.522Z,-1.18
2019-01-10T07:57:41.173Z,-1.14
2019-01-10T08:00:16.228Z,-1.10
2019-01-10T08:02:48.862Z,-1.03
2019-01-10T08:05:21.484Z,-1.05
2019-01-10T08:07:54.080Z,-1.02
2019-01-10T08:10:26.773Z,-0.90
2019-01-10T08:12:59.940Z,-0.83
2019-01-10T08:15:32.669Z,-0.73
2019-01-10T08:18:06.254Z,-0.98
2019-01-10T08:20:39.056Z,-1.02
2019-01-10T08:23:11.707Z,-0.83
2019-01-10T08:25:49.762Z,-0.66
2019-01-10T08:28:22.314Z,-0.39
2019-01-10T08:30:54.964Z,-0.31
2019-01-10T08:33:27.582Z,-0.18
2019-01-10T08:36:00.186Z,-0.05
2019-01-10T08:38:32.779Z,0.16
2019-01-10T08:41:05.456Z,0.32
2019-01-10T08:43:38.157Z,0.31
2019-01-10T08:46:11.124Z,0.43
2019-01-10T08:48:43.695Z,0.25
2019-01-10T08:51:16.324Z,-0.04
2019-01-10T08:53:53.734Z,-0.53
2019-01-10T08:56:23.272Z,-0.31
2019-01-10T08:58:56.027Z,0.06
2019-01-10T09:01:28.777Z,-0.38
2019-01-10T09:04:01.445Z,-0.29
2019-01-10T09:06:34.120Z,0.01
2019-01-10T09:09:10.194Z,0.10
2019-01-10T09:11:45.608Z,0.14
2019-01-10T09:14:20.248Z,-0.05
2019-01-10T09:16:52.880Z,-0.15
2019-01-10T09:19:25.684Z,-0.04
2019-01-10T09:21:58.299Z,-0.26
2019-01-10T09:24:31.195Z,0.03
2019-01-10T09:27:03.848Z,0.10
2019-01-10T09:29:36.596Z,0.07
2019-01-10T09:32:09.399Z,0.17
2019-01-10T09:34:42.060Z,0.10
2019-01-10T09:37:15.206Z,0.05
2019-01-10T09:39:47.960Z,-0.02
2019-01-10T09:42:20.753Z,-0.03
2019-01-10T09:44:53.389Z,0.10
2019-01-10T09:47:26.105Z,0.09
2019-01-10T09:49:58.654Z,0.06
2019-01-10T09:52:31.482Z,0.14
2019-01-10T09:55:04.093Z,0.19
2019-01-10T09:57:36.652Z,0.11
2019-01-10T10:00:15.738Z,0.13
2019-01-10T10:02:48.423Z,0.07
2019-01-10T10:05:21.186Z,0.27
2019-01-10T10:07:54.299Z,0.57
2019-01-10T10:10:26.961Z,0.86
2019-01-10T10:12:59.566Z,1.11
2019-01-10T10:15:32.366Z,1.27
2019-01-10T10:18:04.913Z,1.37
2019-01-10T10:20:37.561Z,1.35
2019-01-10T10:23:10.208Z,1.43
2019-01-10T10:25:42.854Z,1.47
2019-01-10T10:28:15.415Z,1.71
2019-01-10T10:30:48.056Z,1.21
2019-01-10T10:33:20.759Z,1.52
2019-01-10T10:35:53.429Z,1.49
2019-01-10T10:38:26.052Z,1.69
2019-01-10T10:40:59.225Z,1.20
2019-01-10T10:43:31.933Z,0.78
2019-01-10T10:46:05.168Z,0.84
2019-01-10T10:48:37.814Z,0.69
2019-01-10T10:51:10.809Z,0.72
2019-01-10T10:53:43.410Z,0.96
2019-01-10T10:56:16.015Z,1.01
2019-01-10T10:58:49.066Z,1.33
2019-01-10T11:01:21.755Z,1.62
2019-01-10T11:03:54.832Z,1.98
2019-01-10T11:06:27.506Z,1.55
2019-01-10T11:09:09.061Z,1.56
2019-01-10T11:11:35.806Z,2.37
2019-01-10T11:14:08.440Z,2.82
2019-01-10T11:16:40.968Z,1.94
2019-01-10T11:19:13.626Z,2.08
2019-01-10T11:21:46.231Z,2.65
2019-01-10T11:24:18.871Z,2.18
2019-01-10T11:26:53.448Z,2.17
2019-01-10T11:29:25.950Z,2.20
2019-01-10T11:31:59.685Z,2.05
2019-01-10T11:34:32.440Z,2.01
2019-01-10T11:37:05.114Z,2.31
2019-01-10T11:39:37.750Z,2.30
2019-01-10T11:42:10.617Z,2.03
2019-01-10T11:44:43.218Z,1.79
2019-01-10T11:47:15.945Z,2.24
2019-01-10T11:49:48.724Z,2.27
2019-01-10T11:52:21.459Z,2.17
2019-01-10T11:54:54.259Z,1.68
2019-01-10T11:57:26.937Z,1.61
2019-01-10T11:59:59.719Z,1.28
2019-01-10T12:02:36.434Z,0.69
2019-01-10T12:05:09.075Z,0.94
2019-01-10T12:07:41.700Z,1.06
2019-01-10T12:10:16.550Z,1.00
2019-01-10T12:12:49.241Z,0.85
2019-01-10T12:15:22.092Z,0.56
2019-01-10T12:17:54.328Z,0.57
2019-01-10T12:20:27.043Z,0.66
2019-01-10T12:22:59.710Z,0.63
2019-01-10T12:25:32.573Z,0.75
2019-01-10T12:28:06.268Z,0.59
2019-01-10T12:30:38.914Z,0.47
2019-01-10T12:33:11.739Z,0.35
2019-01-10T12:35:44.452Z,0.66
2019-01-10T12:38:17.033Z,0.94
2019-01-10T12:40:49.749Z,0.77
2019-01-10T12:43:22.382Z,0.84
2019-01-10T12:45:55.275Z,0.90
2019-01-10T12:48:27.927Z,0.95
2019-01-10T12:51:00.523Z,0.73
2019-01-10T12:53:33.352Z,0.82
2019-01-10T12:56:05.983Z,0.64
2019-01-10T12:58:38.607Z,0.90
2019-01-10T13:01:11.493Z,0.89
2019-01-10T13:03:44.397Z,1.09
2019-01-10T13:06:17.069Z,1.20
2019-01-10T13:08:49.736Z,0.96
2019-01-10T13:11:22.727Z,0.47
2019-01-10T13:13:55.691Z,0.65
2019-01-10T13:16:28.601Z,0.69
2019-01-10T13:19:01.182Z,0.62
2019-01-10T13:21:33.737Z,0.58
2019-01-10T13:24:06.456Z,0.46
2019-01-10T13:26:39.161Z,0.57
2019-01-10T13:29:11.852Z,0.53
2019-01-10T13:31:45.236Z,0.68
2019-01-10T13:34:17.490Z,0.79
2019-01-10T13:36:50.217Z,0.55
2019-01-10T13:39:22.924Z,0.65
2019-01-10T13:41:55.686Z,0.59
2019-01-10T13:44:28.309Z,0.72
2019-01-10T13:47:00.943Z,0.86
2019-01-10T13:49:33.553Z,0.81
2019-01-10T13:52:06.208Z,0.67
2019-01-10T13:54:39.032Z,0.67
2019-01-10T13:57:14.865Z,0.79
2019-01-10T13:59:47.543Z,0.59
2019-01-10T14:02:20.206Z,0.64
2019-01-10T14:04:52.914Z,0.42
2019-01-10T14:07:25.639Z,0.44
2019-01-10T14:09:58.342Z,0.40
2019-01-10T14:12:30.994Z,0.24
2019-01-10T14:15:03.739Z,-0.06
2019-01-10T14:17:36.338Z,-0.02
2019-01-10T14:20:11.591Z,-0.14
2019-01-10T14:22:44.185Z,-0.13
2019-01-10T14:25:17.058Z,-0.23
2019-01-10T14:27:49.833Z,-0.46
2019-01-10T14:30:44.023Z,-0.93
2019-01-10T14:33:16.789Z,-0.62
2019-01-10T14:35:49.421Z,-0.50
2019-01-10T14:38:22.960Z,-0.42
2019-01-10T14:40:56.004Z,-0.45
2019-01-10T14:43:28.673Z,-0.25
2019-01-10T14:46:01.352Z,-0.23
2019-01-10T14:48:33.922Z,-0.29
2019-01-10T14:51:06.651Z,-0.52
2019-01-10T14:53:39.355Z,-0.44
2019-01-10T14:56:11.988Z,-0.33
2019-01-10T14:58:44.550Z,-0.34
2019-01-10T15:01:17.187Z,-0.35
2019-01-10T15:03:49.755Z,-0.74
2019-01-10T15:06:22.396Z,-0.80
2019-01-10T15:08:54.975Z,-0.69
2019-01-10T15:11:27.674Z,-0.68
2019-01-10T15:14:00.257Z,-0.69
2019-01-10T15:16:32.987Z,-0.56
2019-01-10T15:19:05.983Z,-0.52
2019-01-10T15:21:38.608Z,-0.82
2019-01-10T15:24:12.263Z,-0.82
2019-01-10T15:26:44.987Z,-0.78
2019-01-10T15:29:17.658Z,-0.72
2019-01-10T15:31:50.342Z,-0.83
2019-01-10T15:34:22.922Z,-0.86
2019-01-10T15:36:55.597Z,-0.83
2019-01-10T15:39:28.277Z,-0.77
2019-01-10T15:42:00.947Z,-0.75
2019-01-10T15:44:33.576Z,-0.95
2019-01-10T15:47:06.836Z,-0.84
2019-01-10T15:49:39.482Z,-0.96
2019-01-10T15:52:13.241Z,-1.04
2019-01-10T15:54:46.162Z,-1.00
2019-01-10T15:57:19.193Z,-1.14
2019-01-10T15:59:51.934Z,-1.03
2019-01-10T16:02:24.534Z,-1.03
2019-01-10T16:04:57.132Z,-1.09
2019-01-10T16:07:29.837Z,-1.05
2019-01-10T16:10:02.427Z,-1.03
2019-01-10T16:12:35.094Z,-1.00
2019-01-10T16:15:10.804Z,-0.98
2019-01-10T16:17:43.499Z,-1.24
2019-01-10T16:20:17.378Z,-1.22
2019-01-10T16:22:50.065Z,-1.23
2019-01-10T16:25:22.658Z,-1.27
2019-01-10T16:27:55.216Z,-1.22
2019-01-10T16:30:31.895Z,-1.27
2019-01-10T16:33:04.538Z,-1.28
2019-01-10T16:35:37.187Z,-1.20
2019-01-10T16:38:09.845Z,-1.27
2019-01-10T16:40:42.421Z,-1.22
2019-01-10T16:43:15.019Z,-1.16
2019-01-10T16:45:47.941Z,-1.16
2019-01-10T16:48:19.776Z,-1.25
2019-01-10T16:50:52.710Z,-1.37
2019-01-10T16:53:25.389Z,-1.37
2019-01-10T16:55:58.090Z,-1.26
2019-01-10T16:58:32.937Z,-1.20
2019-01-10T17:01:05.504Z,-1.11
2019-01-10T17:03:38.124Z,-1.10
2019-01-10T17:06:09.938Z,-1.22
2019-01-10T17:08:42.760Z,-1.28
2019-01-10T17:11:15.401Z,-1.36
2019-01-10T17:13:48.153Z,-1.34
2019-01-10T17:16:20.741Z,-1.26
2019-01-10T17:18:53.494Z,-1.40
2019-01-10T17:21:26.137Z,-1.34
2019-01-10T17:23:58.763Z,-1.22
2019-01-10T17:32:44.411Z,-1.29
2019-01-10T17:35:21.991Z,-1.38
2019-01-10T17:37:54.650Z,-1.26
2019-01-10T17:40:27.224Z,-1.29
2019-01-10T17:43:00.134Z,-1.40
2019-01-10T17:45:35.727Z,-1.31
2019-01-10T17:48:11.509Z,-1.25
2019-01-10T17:50:44.115Z,-1.16
2019-01-10T17:53:16.730Z,-1.23
2019-01-10T17:55:49.389Z,-1.29
2019-01-10T17:58:22.167Z,-1.25
2019-01-10T18:00:54.728Z,-1.30
2019-01-10T18:03:27.326Z,-1.32
2019-01-10T18:05:59.990Z,-1.28
2019-01-10T18:08:32.740Z,-1.23
2019-01-10T18:11:11.351Z,-1.16
2019-01-10T18:13:43.928Z,-1.18
2019-01-10T18:16:16.554Z,-1.16
2019-01-10T18:18:49.238Z,-1.14
2019-01-10T18:21:21.874Z,-1.15
2019-01-10T18:23:54.651Z,-1.29
2019-01-10T18:26:27.241Z,-1.46
2019-01-10T18:28:59.818Z,-1.44
2019-01-10T18:31:32.467Z,-1.32
2019-01-10T18:34:05.237Z,-1.24
2019-01-10T18:36:37.896Z,-1.24
2019-01-10T18:39:10.625Z,-1.46
2019-01-10T18:41:43.265Z,-1.54
2019-01-10T18:44:16.018Z,-1.52
2019-01-10T18:46:49.937Z,-1.41
2019-01-10T18:49:22.706Z,-1.51
2019-01-10T18:51:55.709Z,-1.46
2019-01-10T18:54:28.606Z,-1.45
2019-01-10T18:57:01.207Z,-1.56
2019-01-10T18:59:33.853Z,-1.44
2019-01-10T19:02:06.597Z,-1.45
2019-01-10T19:04:39.228Z,-1.54
2019-01-10T19:07:11.831Z,-1.45
2019-01-10T19:09:44.634Z,-1.65
2019-01-10T19:12:17.280Z,-1.63
2019-01-10T19:14:49.900Z,-1.68
2019-01-10T19:17:26.096Z,-1.75
2019-01-10T19:19:56.959Z,-1.68
2019-01-10T19:22:29.519Z,-1.65
2019-01-10T19:25:02.098Z,-1.67
2019-01-10T19:27:34.876Z,-1.64
2019-01-10T19:30:14.923Z,-1.61
2019-01-10T19:32:47.746Z,-1.58
2019-01-10T19:35:20.493Z,-1.55
2019-01-10T19:37:54.275Z,-1.60
2019-01-10T19:40:26.865Z,-1.53
2019-01-10T19:42:59.511Z,-1.53
2019-01-10T19:45:32.139Z,-1.50
2019-01-10T19:48:09.642Z,-1.56
2019-01-10T19:50:39.394Z,-1.49
2019-01-10T19:53:12.410Z,-1.52
2019-01-10T19:55:45.057Z,-1.63
2019-01-10T19:58:17.767Z,-1.65
2019-01-10T20:00:55.019Z,-1.67
2019-01-10T20:03:27.664Z,-1.69
2019-01-10T20:06:00.375Z,-1.64
2019-01-10T20:08:33.013Z,-1.63
2019-01-10T20:11:05.828Z,-1.65
2019-01-10T20:13:38.479Z,-1.58
2019-01-10T20:16:11.237Z,-1.55
2019-01-10T20:18:45.960Z,-1.52
2019-01-10T20:21:18.558Z,-1.56
2019-01-10T20:23:51.145Z,-1.58
2019-01-10T20:26:23.797Z,-1.59
2019-01-10T20:28:55.796Z,-1.62
2019-01-10T20:31:28.459Z,-1.58
2019-01-10T20:34:01.067Z,-1.64
2019-01-10T20:36:33.755Z,-1.51
2019-01-10T20:39:09.343Z,-1.50
2019-01-10T20:41:41.932Z,-1.59
2019-01-10T20:44:14.715Z,-1.58
2019-01-10T20:46:47.377Z,-1.62
2019-01-10T20:49:20.247Z,-1.54
2019-01-10T20:51:52.878Z,-1.45
2019-01-10T20:54:25.581Z,-1.52
2019-01-10T20:56:58.275Z,-1.46
2019-01-10T20:59:30.941Z,-1.37
2019-01-10T21:02:03.591Z,-1.51
2019-01-10T21:04:36.252Z,-1.49
2019-01-10T21:07:14.291Z,-1.38
2019-01-10T21:09:46.992Z,-1.46
2019-01-10T21:12:19.735Z,-1.64
2019-01-10T21:14:52.485Z,-1.65
2019-01-10T21:17:25.213Z,-1.58
2019-01-10T21:19:58.048Z,-1.50
2019-01-10T21:22:30.634Z,-1.58
2019-01-10T21:25:03.378Z,-1.62
2019-01-10T21:27:36.165Z,-1.59
2019-01-10T21:30:12.918Z,-1.63
2019-01-10T21:32:46.880Z,-1.62
2019-01-10T21:35:20.051Z,-1.62
2019-01-10T21:37:52.734Z,-1.69
2019-01-10T21:40:25.853Z,-1.71
2019-01-10T21:42:58.511Z,-1.78
2019-01-10T21:45:31.287Z,-1.76
2019-01-10T21:48:03.977Z,-1.86
2019-01-10T21:50:36.613Z,-1.85
2019-01-10T21:53:09.227Z,-1.75
2019-01-10T21:55:41.846Z,-1.72
2019-01-10T21:58:14.543Z,-1.72
2019-01-10T22:00:47.186Z,-1.59
2019-01-10T22:03:19.914Z,-1.56
2019-01-10T22:05:52.788Z,-1.58
2019-01-10T22:08:25.738Z,-1.56
2019-01-10T22:11:01.266Z,-1.62
2019-01-10T22:13:32.697Z,-1.66
2019-01-10T22:16:05.523Z,-1.65
2019-01-10T22:18:41.426Z,-1.56
2019-01-10T22:21:12.417Z,-1.62
2019-01-10T22:23:45.480Z,-1.66
2019-01-10T22:26:18.132Z,-1.60
2019-01-10T22:28:50.721Z,-1.57
2019-01-10T22:31:23.428Z,-1.56
2019-01-10T22:33:56.077Z,-1.50
2019-01-10T22:36:27.967Z,-1.66
2019-01-10T22:39:00.584Z,-1.67
2019-01-10T22:41:33.152Z,-1.73
2019-01-10T22:44:05.786Z,-1.71
2019-01-10T22:46:38.589Z,-1.77
2019-01-10T22:49:11.193Z,-1.76
2019-01-10T22:51:43.832Z,-1.69
2019-01-10T22:54:16.447Z,-1.72
2019-01-10T22:56:49.059Z,-1.74
2019-01-10T22:59:22.023Z,-1.70
2019-01-10T23:01:59.327Z,-1.69
2019-01-10T23:04:38.313Z,-1.79
2019-01-10T23:07:22.053Z,-1.71
2019-01-10T23:10:03.026Z,-1.78
2019-01-10T23:12:36.912Z,-1.72
2019-01-10T23:15:33.629Z,-1.71
2019-01-10T23:18:07.871Z,-1.77
2019-01-10T23:20:39.875Z,-1.77
2019-01-10T23:23:13.813Z,-1.81
2019-01-10T23:25:52.978Z,-1.85
2019-01-10T23:28:25.818Z,-1.76
2019-01-10T23:31:00.910Z,-1.76
2019-01-10T23:33:33.655Z,-1.74
2019-01-10T23:36:07.369Z,-1.75
2019-01-10T23:38:39.969Z,-1.83
2019-01-10T23:41:12.582Z,-1.83
2019-01-10T23:43:45.224Z,-1.80
2019-01-10T23:46:17.827Z,-1.77
2019-01-10T23:48:50.427Z,-1.76
2019-01-10T23:51:23.061Z,-1.79
2019-01-10T23:53:55.601Z,-1.81
2019-01-10T23:56:28.227Z,-1.77
2019-01-10T23:59:00.806Z,-1.77
